sensor_id;sensor_type;location;lat;lon;timestamp;pressure;altitude;pressure_sealevel;temperature;humidity
22440;BME280;11387;51.612;7.210;2022-09-09T00:01:24;100036.53;;;13.48;88.87
22440;BME280;11387;51.612;7.210;2022-09-09T00:04:00;100031.34;;;13.46;89.92
22440;BME280;11387;51.612;7.210;2022-09-09T00:06:32;100022.53;;;13.41;90.32
22440;BME280;11387;51.612;7.210;2022-09-09T00:09:09;100021.88;;;13.44;90.63
22440;BME280;11387;51.612;7.210;2022-09-09T00:11:42;100028.28;;;13.48;90.69
22440;BME280;11387;51.612;7.210;2022-09-09T00:14:17;100022.91;;;13.52;90.50
22440;BME280;11387;51.612;7.210;2022-09-09T00:16:55;100028.56;;;13.55;90.58
22440;BME280;11387;51.612;7.210;2022-09-09T00:19:30;100018.72;;;13.54;90.57
22440;BME280;11387;51.612;7.210;2022-09-09T00:22:12;100020.78;;;13.57;89.65
22440;BME280;11387;51.612;7.210;2022-09-09T00:24:44;100017.56;;;13.55;90.22
22440;BME280;11387;51.612;7.210;2022-09-09T00:27:21;100016.91;;;13.58;90.44
22440;BME280;11387;51.612;7.210;2022-09-09T00:29:54;100017.06;;;13.62;90.50
22440;BME280;11387;51.612;7.210;2022-09-09T00:32:28;100021.06;;;13.64;90.71
22440;BME280;11387;51.612;7.210;2022-09-09T00:35:03;100017.66;;;13.67;90.85
22440;BME280;11387;51.612;7.210;2022-09-09T00:37:38;100016.53;;;13.68;90.37
22440;BME280;11387;51.612;7.210;2022-09-09T00:40:18;100012.34;;;13.62;90.79
22440;BME280;11387;51.612;7.210;2022-09-09T00:42:54;100012.34;;;13.62;90.74
22440;BME280;11387;51.612;7.210;2022-09-09T00:45:42;100018.19;;;13.61;90.97
22440;BME280;11387;51.612;7.210;2022-09-09T00:48:15;100011.56;;;13.62;90.85
22440;BME280;11387;51.612;7.210;2022-09-09T00:50:52;100012.06;;;13.55;91.34
22440;BME280;11387;51.612;7.210;2022-09-09T00:53:31;100013.97;;;13.63;91.17
22440;BME280;11387;51.612;7.210;2022-09-09T00:56:12;100016.25;;;13.61;91.11
22440;BME280;11387;51.612;7.210;2022-09-09T00:58:43;100014.50;;;13.57;90.70
22440;BME280;11387;51.612;7.210;2022-09-09T01:01:18;100005.16;;;13.49;90.69
22440;BME280;11387;51.612;7.210;2022-09-09T01:03:50;100014.06;;;13.46;90.75
22440;BME280;11387;51.612;7.210;2022-09-09T01:06:28;100013.69;;;13.56;91.19
22440;BME280;11387;51.612;7.210;2022-09-09T01:09:08;100013.81;;;13.60;90.97
22440;BME280;11387;51.612;7.210;2022-09-09T01:11:50;100012.34;;;13.62;90.78
22440;BME280;11387;51.612;7.210;2022-09-09T01:14:31;100011.41;;;13.58;90.18
22440;BME280;11387;51.612;7.210;2022-09-09T01:17:09;100008.31;;;13.60;90.50
22440;BME280;11387;51.612;7.210;2022-09-09T01:19:49;100013.03;;;13.59;90.76
22440;BME280;11387;51.612;7.210;2022-09-09T01:22:28;100016.75;;;13.55;91.20
22440;BME280;11387;51.612;7.210;2022-09-09T01:25:15;100012.06;;;13.55;91.56
22440;BME280;11387;51.612;7.210;2022-09-09T01:27:49;100020.13;;;13.60;91.62
22440;BME280;11387;51.612;7.210;2022-09-09T01:30:20;100009.09;;;13.69;91.05
22440;BME280;11387;51.612;7.210;2022-09-09T01:32:50;100019.88;;;13.74;90.88
22440;BME280;11387;51.612;7.210;2022-09-09T01:35:29;100005.44;;;13.77;90.30
22440;BME280;11387;51.612;7.210;2022-09-09T01:38:00;100006.38;;;13.81;89.45
22440;BME280;11387;51.612;7.210;2022-09-09T01:40:28;100002.31;;;13.66;90.03
22440;BME280;11387;51.612;7.210;2022-09-09T01:42:58;99994.59;;;13.60;89.98
22440;BME280;11387;51.612;7.210;2022-09-09T01:45:26;99998.13;;;13.60;90.11
22440;BME280;11387;51.612;7.210;2022-09-09T01:47:54;100005.78;;;13.55;90.70
22440;BME280;11387;51.612;7.210;2022-09-09T01:50:24;100002.69;;;13.56;91.40
22440;BME280;11387;51.612;7.210;2022-09-09T01:52:56;100001.69;;;13.61;90.85
22440;BME280;11387;51.612;7.210;2022-09-09T01:55:29;99999.75;;;13.61;91.19
22440;BME280;11387;51.612;7.210;2022-09-09T01:58:13;100006.53;;;13.64;91.20
22440;BME280;11387;51.612;7.210;2022-09-09T02:00:51;100003.72;;;13.72;90.75
22440;BME280;11387;51.612;7.210;2022-09-09T02:03:25;99999.38;;;13.71;90.49
22440;BME280;11387;51.612;7.210;2022-09-09T02:06:02;99998.41;;;13.67;90.67
22440;BME280;11387;51.612;7.210;2022-09-09T02:08:40;99995.72;;;13.59;91.04
22440;BME280;11387;51.612;7.210;2022-09-09T02:11:14;100002.03;;;13.59;91.41
22440;BME280;11387;51.612;7.210;2022-09-09T02:13:46;100006.19;;;13.65;91.26
22440;BME280;11387;51.612;7.210;2022-09-09T02:16:19;100000.69;;;13.65;90.95
22440;BME280;11387;51.612;7.210;2022-09-09T02:18:53;100007.13;;;13.69;90.61
22440;BME280;11387;51.612;7.210;2022-09-09T02:21:24;100009.94;;;13.81;90.05
22440;BME280;11387;51.612;7.210;2022-09-09T02:23:56;100020.34;;;13.76;89.65
22440;BME280;11387;51.612;7.210;2022-09-09T02:26:27;100012.16;;;13.67;90.12
22440;BME280;11387;51.612;7.210;2022-09-09T02:28:58;100015.25;;;13.66;90.06
22440;BME280;11387;51.612;7.210;2022-09-09T02:31:28;100013.59;;;13.73;89.97
22440;BME280;11387;51.612;7.210;2022-09-09T02:33:59;100014.63;;;13.81;89.98
22440;BME280;11387;51.612;7.210;2022-09-09T02:36:31;100010.09;;;13.85;89.42
22440;BME280;11387;51.612;7.210;2022-09-09T02:39:03;100010.81;;;13.94;89.34
22440;BME280;11387;51.612;7.210;2022-09-09T02:41:35;100020.03;;;13.98;88.86
22440;BME280;11387;51.612;7.210;2022-09-09T02:44:09;100016.25;;;14.03;88.32
22440;BME280;11387;51.612;7.210;2022-09-09T02:46:50;100013.28;;;14.08;87.76
22440;BME280;11387;51.612;7.210;2022-09-09T02:49:29;100008.06;;;14.15;87.57
22440;BME280;11387;51.612;7.210;2022-09-09T02:52:05;100010.06;;;14.27;86.95
22440;BME280;11387;51.612;7.210;2022-09-09T02:54:37;100009.66;;;14.37;86.48
22440;BME280;11387;51.612;7.210;2022-09-09T02:57:08;100005.69;;;14.46;85.89
22440;BME280;11387;51.612;7.210;2022-09-09T02:59:40;100009.63;;;14.58;85.40
22440;BME280;11387;51.612;7.210;2022-09-09T03:02:08;100006.66;;;14.63;85.57
22440;BME280;11387;51.612;7.210;2022-09-09T03:04:38;100003.66;;;14.68;85.28
22440;BME280;11387;51.612;7.210;2022-09-09T03:07:07;100001.50;;;14.73;85.10
22440;BME280;11387;51.612;7.210;2022-09-09T03:09:35;100000.94;;;14.80;84.88
22440;BME280;11387;51.612;7.210;2022-09-09T03:12:04;100007.94;;;14.77;85.03
22440;BME280;11387;51.612;7.210;2022-09-09T03:14:33;99996.78;;;14.74;85.23
22440;BME280;11387;51.612;7.210;2022-09-09T03:17:03;100001.28;;;14.78;85.31
22440;BME280;11387;51.612;7.210;2022-09-09T03:19:32;99989.47;;;14.78;85.35
22440;BME280;11387;51.612;7.210;2022-09-09T03:22:03;99995.19;;;14.73;85.59
22440;BME280;11387;51.612;7.210;2022-09-09T03:24:32;99996.00;;;14.73;85.83
22440;BME280;11387;51.612;7.210;2022-09-09T03:27:00;99991.97;;;14.71;86.00
22440;BME280;11387;51.612;7.210;2022-09-09T03:29:28;99986.13;;;14.72;86.01
22440;BME280;11387;51.612;7.210;2022-09-09T03:31:57;99979.59;;;14.77;85.98
22440;BME280;11387;51.612;7.210;2022-09-09T03:34:26;99983.81;;;14.74;85.98
22440;BME280;11387;51.612;7.210;2022-09-09T03:36:55;99975.00;;;14.81;85.42
22440;BME280;11387;51.612;7.210;2022-09-09T03:39:23;99973.53;;;14.83;85.14
22440;BME280;11387;51.612;7.210;2022-09-09T03:41:51;99971.78;;;14.67;85.51
22440;BME280;11387;51.612;7.210;2022-09-09T03:44:20;99982.22;;;14.61;85.86
22440;BME280;11387;51.612;7.210;2022-09-09T03:46:52;99982.09;;;14.58;85.93
22440;BME280;11387;51.612;7.210;2022-09-09T03:49:24;99976.34;;;14.51;86.22
22440;BME280;11387;51.612;7.210;2022-09-09T03:51:56;99985.19;;;14.56;85.73
22440;BME280;11387;51.612;7.210;2022-09-09T03:54:28;99986.63;;;14.41;85.91
22440;BME280;11387;51.612;7.210;2022-09-09T03:56:56;99984.94;;;14.49;86.06
22440;BME280;11387;51.612;7.210;2022-09-09T03:59:24;99992.84;;;14.51;85.65
22440;BME280;11387;51.612;7.210;2022-09-09T04:01:54;99988.28;;;14.55;85.30
22440;BME280;11387;51.612;7.210;2022-09-09T04:04:24;99984.13;;;14.48;85.59
22440;BME280;11387;51.612;7.210;2022-09-09T04:06:53;99993.91;;;14.37;85.75
22440;BME280;11387;51.612;7.210;2022-09-09T04:09:23;99996.63;;;14.46;85.87
22440;BME280;11387;51.612;7.210;2022-09-09T04:11:51;100002.25;;;14.49;85.70
22440;BME280;11387;51.612;7.210;2022-09-09T04:14:20;100001.31;;;14.45;85.63
22440;BME280;11387;51.612;7.210;2022-09-09T04:16:49;99996.06;;;14.53;85.05
22440;BME280;11387;51.612;7.210;2022-09-09T04:19:17;99990.31;;;14.45;85.49
22440;BME280;11387;51.612;7.210;2022-09-09T04:21:45;100001.56;;;14.53;85.20
22440;BME280;11387;51.612;7.210;2022-09-09T04:24:16;99999.72;;;14.44;85.30
22440;BME280;11387;51.612;7.210;2022-09-09T04:26:45;100004.91;;;14.58;85.08
22440;BME280;11387;51.612;7.210;2022-09-09T04:29:15;100001.56;;;14.53;84.94
22440;BME280;11387;51.612;7.210;2022-09-09T04:31:43;100001.09;;;14.51;84.95
22440;BME280;11387;51.612;7.210;2022-09-09T04:34:12;100001.03;;;14.38;85.36
22440;BME280;11387;51.612;7.210;2022-09-09T04:36:41;99997.84;;;14.36;85.61
22440;BME280;11387;51.612;7.210;2022-09-09T04:39:09;100004.91;;;14.37;85.56
22440;BME280;11387;51.612;7.210;2022-09-09T04:41:37;99997.63;;;14.41;85.31
22440;BME280;11387;51.612;7.210;2022-09-09T04:44:07;100001.31;;;14.45;85.45
22440;BME280;11387;51.612;7.210;2022-09-09T04:46:36;100008.31;;;14.43;85.49
22440;BME280;11387;51.612;7.210;2022-09-09T04:49:05;100002.91;;;14.46;85.23
22440;BME280;11387;51.612;7.210;2022-09-09T04:51:35;100014.94;;;14.42;85.40
22440;BME280;11387;51.612;7.210;2022-09-09T04:54:04;100004.00;;;14.33;85.42
22440;BME280;11387;51.612;7.210;2022-09-09T04:56:32;100001.13;;;14.30;86.06
22440;BME280;11387;51.612;7.210;2022-09-09T04:59:00;100008.78;;;14.24;86.24
22440;BME280;11387;51.612;7.210;2022-09-09T05:01:31;100006.84;;;14.25;86.42
22440;BME280;11387;51.612;7.210;2022-09-09T05:04:00;100011.22;;;14.38;86.20
22440;BME280;11387;51.612;7.210;2022-09-09T05:06:28;100008.47;;;14.38;86.37
22440;BME280;11387;51.612;7.210;2022-09-09T05:08:58;100006.41;;;14.56;85.69
22440;BME280;11387;51.612;7.210;2022-09-09T05:11:28;100008.25;;;14.64;84.92
22440;BME280;11387;51.612;7.210;2022-09-09T05:13:57;100007.34;;;14.72;84.84
22440;BME280;11387;51.612;7.210;2022-09-09T05:16:25;100013.31;;;14.74;84.45
22440;BME280;11387;51.612;7.210;2022-09-09T05:18:55;100003.91;;;14.75;84.28
22440;BME280;11387;51.612;7.210;2022-09-09T05:21:24;100009.66;;;14.82;84.30
22440;BME280;11387;51.612;7.210;2022-09-09T05:23:53;100007.84;;;14.86;83.98
22440;BME280;11387;51.612;7.210;2022-09-09T05:26:22;100003.72;;;14.92;83.67
22440;BME280;11387;51.612;7.210;2022-09-09T05:28:51;100002.13;;;14.91;83.93
22440;BME280;11387;51.612;7.210;2022-09-09T05:31:20;99999.13;;;14.96;83.37
22440;BME280;11387;51.612;7.210;2022-09-09T05:33:48;100003.13;;;14.99;83.46
22440;BME280;11387;51.612;7.210;2022-09-09T05:36:20;99991.19;;;15.07;83.19
22440;BME280;11387;51.612;7.210;2022-09-09T05:38:49;99996.94;;;15.14;82.97
22440;BME280;11387;51.612;7.210;2022-09-09T05:41:17;99998.34;;;15.20;82.69
22440;BME280;11387;51.612;7.210;2022-09-09T05:43:46;100004.88;;;15.28;82.16
22440;BME280;11387;51.612;7.210;2022-09-09T05:46:17;99993.88;;;15.28;82.01
22440;BME280;11387;51.612;7.210;2022-09-09T05:48:47;100005.22;;;15.38;81.50
22440;BME280;11387;51.612;7.210;2022-09-09T05:51:20;99994.75;;;15.44;81.58
22440;BME280;11387;51.612;7.210;2022-09-09T05:53:49;99995.59;;;15.57;80.82
22440;BME280;11387;51.612;7.210;2022-09-09T05:56:19;99999.91;;;15.70;80.20
22440;BME280;11387;51.612;7.210;2022-09-09T05:58:49;99993.13;;;15.79;79.40
22440;BME280;11387;51.612;7.210;2022-09-09T06:01:20;99991.03;;;15.89;79.00
22440;BME280;11387;51.612;7.210;2022-09-09T06:03:50;99992.00;;;15.96;78.83
22440;BME280;11387;51.612;7.210;2022-09-09T06:06:22;99999.59;;;15.99;78.57
22440;BME280;11387;51.612;7.210;2022-09-09T06:08:52;99995.59;;;15.97;78.85
22440;BME280;11387;51.612;7.210;2022-09-09T06:11:22;99998.22;;;15.93;78.91
22440;BME280;11387;51.612;7.210;2022-09-09T06:13:51;99996.63;;;15.92;78.80
22440;BME280;11387;51.612;7.210;2022-09-09T06:16:23;100000.66;;;15.95;78.47
22440;BME280;11387;51.612;7.210;2022-09-09T06:18:53;100002.00;;;16.01;78.52
22440;BME280;11387;51.612;7.210;2022-09-09T06:21:26;100008.53;;;16.08;78.21
22440;BME280;11387;51.612;7.210;2022-09-09T06:23:55;100007.31;;;16.22;77.40
22440;BME280;11387;51.612;7.210;2022-09-09T06:26:29;100009.00;;;16.38;77.24
22440;BME280;11387;51.612;7.210;2022-09-09T06:28:58;100005.97;;;16.43;76.48
22440;BME280;11387;51.612;7.210;2022-09-09T06:31:35;100008.94;;;16.50;76.41
22440;BME280;11387;51.612;7.210;2022-09-09T06:34:05;100006.44;;;16.61;75.95
22440;BME280;11387;51.612;7.210;2022-09-09T06:36:37;100004.03;;;16.60;75.99
22440;BME280;11387;51.612;7.210;2022-09-09T06:39:06;100003.03;;;16.52;76.41
22440;BME280;11387;51.612;7.210;2022-09-09T06:41:41;100003.41;;;16.50;76.20
22440;BME280;11387;51.612;7.210;2022-09-09T06:44:10;100003.34;;;16.63;76.18
22440;BME280;11387;51.612;7.210;2022-09-09T06:46:40;100010.25;;;16.69;75.74
22440;BME280;11387;51.612;7.210;2022-09-09T06:49:08;100009.28;;;16.77;75.47
22440;BME280;11387;51.612;7.210;2022-09-09T06:51:38;100005.97;;;16.87;74.99
22440;BME280;11387;51.612;7.210;2022-09-09T06:54:11;100007.84;;;16.99;74.62
22440;BME280;11387;51.612;7.210;2022-09-09T06:56:41;100016.03;;;17.42;73.16
22440;BME280;11387;51.612;7.210;2022-09-09T06:59:10;100009.13;;;18.03;71.16
22440;BME280;11387;51.612;7.210;2022-09-09T07:01:40;100009.47;;;18.21;70.05
22440;BME280;11387;51.612;7.210;2022-09-09T07:04:11;100022.63;;;18.08;70.04
22440;BME280;11387;51.612;7.210;2022-09-09T07:06:42;100021.03;;;18.07;70.43
22440;BME280;11387;51.612;7.210;2022-09-09T07:09:13;100014.22;;;18.20;69.98
22440;BME280;11387;51.612;7.210;2022-09-09T07:11:43;100016.47;;;18.34;69.60
22440;BME280;11387;51.612;7.210;2022-09-09T07:14:12;100016.84;;;18.32;69.43
22440;BME280;11387;51.612;7.210;2022-09-09T07:16:41;100028.75;;;18.56;68.09
22440;BME280;11387;51.612;7.210;2022-09-09T07:19:09;100020.53;;;18.40;69.20
22440;BME280;11387;51.612;7.210;2022-09-09T07:21:38;100034.88;;;17.88;70.59
22440;BME280;11387;51.612;7.210;2022-09-09T07:24:10;100030.44;;;18.22;69.50
22440;BME280;11387;51.612;7.210;2022-09-09T07:26:40;100029.53;;;18.33;68.38
22440;BME280;11387;51.612;7.210;2022-09-09T07:29:09;100026.47;;;19.03;66.35
22440;BME280;11387;51.612;7.210;2022-09-09T07:31:46;100025.34;;;20.10;62.69
22440;BME280;11387;51.612;7.210;2022-09-09T07:34:15;100044.75;;;19.31;64.22
22440;BME280;11387;51.612;7.210;2022-09-09T07:36:44;100034.94;;;19.10;65.30
22440;BME280;11387;51.612;7.210;2022-09-09T07:39:14;100032.69;;;18.55;66.60
22440;BME280;11387;51.612;7.210;2022-09-09T07:41:46;100033.72;;;18.46;67.47
22440;BME280;11387;51.612;7.210;2022-09-09T07:44:16;100030.66;;;18.51;66.48
22440;BME280;11387;51.612;7.210;2022-09-09T07:46:45;100031.13;;;18.34;67.11
22440;BME280;11387;51.612;7.210;2022-09-09T07:49:14;100036.16;;;18.29;66.92
22440;BME280;11387;51.612;7.210;2022-09-09T07:51:52;100033.56;;;18.39;66.53
22440;BME280;11387;51.612;7.210;2022-09-09T07:54:23;100042.91;;;18.70;65.48
22440;BME280;11387;51.612;7.210;2022-09-09T07:56:52;100034.66;;;19.42;63.20
22440;BME280;11387;51.612;7.210;2022-09-09T07:59:20;100053.19;;;19.38;62.46
22440;BME280;11387;51.612;7.210;2022-09-09T08:01:50;100028.16;;;19.83;61.71
22440;BME280;11387;51.612;7.210;2022-09-09T08:04:22;100036.50;;;20.13;60.84
22440;BME280;11387;51.612;7.210;2022-09-09T08:06:57;100046.00;;;20.76;59.06
22440;BME280;11387;51.612;7.210;2022-09-09T08:09:29;100038.34;;;21.06;57.01
22440;BME280;11387;51.612;7.210;2022-09-09T08:11:59;100038.50;;;21.21;57.32
22440;BME280;11387;51.612;7.210;2022-09-09T08:14:29;100038.59;;;20.91;57.63
22440;BME280;11387;51.612;7.210;2022-09-09T08:16:57;100034.75;;;20.65;58.12
22440;BME280;11387;51.612;7.210;2022-09-09T08:19:26;100034.59;;;20.21;58.49
22440;BME280;11387;51.612;7.210;2022-09-09T08:21:56;100037.84;;;19.44;60.73
22440;BME280;11387;51.612;7.210;2022-09-09T08:24:25;100046.59;;;19.46;61.29
22440;BME280;11387;51.612;7.210;2022-09-09T08:26:54;100041.91;;;19.27;61.46
22440;BME280;11387;51.612;7.210;2022-09-09T08:29:23;100042.16;;;19.41;60.69
22440;BME280;11387;51.612;7.210;2022-09-09T08:31:53;100036.66;;;19.68;60.33
22440;BME280;11387;51.612;7.210;2022-09-09T08:34:23;100028.16;;;20.43;57.63
22440;BME280;11387;51.612;7.210;2022-09-09T08:36:53;100035.78;;;20.20;57.59
22440;BME280;11387;51.612;7.210;2022-09-09T08:39:21;100046.81;;;19.57;59.49
22440;BME280;11387;51.612;7.210;2022-09-09T08:42:08;100054.50;;;19.44;60.06
22440;BME280;11387;51.612;7.210;2022-09-09T08:44:49;100057.28;;;19.97;57.44
22440;BME280;11387;51.612;7.210;2022-09-09T08:47:30;100061.06;;;19.55;58.18
22440;BME280;11387;51.612;7.210;2022-09-09T08:50:13;100055.31;;;21.35;53.50
22440;BME280;11387;51.612;7.210;2022-09-09T08:52:51;100056.94;;;20.62;54.38
22440;BME280;11387;51.612;7.210;2022-09-09T08:55:25;100042.63;;;23.14;48.78
22440;BME280;11387;51.612;7.210;2022-09-09T08:57:58;100040.78;;;26.04;41.39
22440;BME280;11387;51.612;7.210;2022-09-09T09:00:39;100050.38;;;27.01;39.44
22440;BME280;11387;51.612;7.210;2022-09-09T09:03:15;100048.78;;;27.00;39.02
22440;BME280;11387;51.612;7.210;2022-09-09T09:05:54;100048.25;;;27.59;37.98
22440;BME280;11387;51.612;7.210;2022-09-09T09:08:32;100050.66;;;26.80;39.04
22440;BME280;11387;51.612;7.210;2022-09-09T09:11:02;100051.50;;;25.30;42.16
22440;BME280;11387;51.612;7.210;2022-09-09T09:13:37;100047.94;;;27.03;38.24
22440;BME280;11387;51.612;7.210;2022-09-09T09:16:17;100048.00;;;28.36;36.47
22440;BME280;11387;51.612;7.210;2022-09-09T09:18:48;100042.28;;;25.78;40.22
22440;BME280;11387;51.612;7.210;2022-09-09T09:21:21;100047.28;;;22.68;46.95
22440;BME280;11387;51.612;7.210;2022-09-09T09:23:57;100040.47;;;24.36;43.51
22440;BME280;11387;51.612;7.210;2022-09-09T09:26:30;100050.97;;;26.25;39.57
22440;BME280;11387;51.612;7.210;2022-09-09T09:29:10;100045.03;;;29.48;33.51
22440;BME280;11387;51.612;7.210;2022-09-09T09:31:43;100044.63;;;28.81;34.21
22440;BME280;11387;51.612;7.210;2022-09-09T09:34:15;100047.75;;;28.47;34.88
22440;BME280;11387;51.612;7.210;2022-09-09T09:36:46;100042.81;;;30.71;30.83
22440;BME280;11387;51.612;7.210;2022-09-09T09:39:25;100047.25;;;30.02;31.79
22440;BME280;11387;51.612;7.210;2022-09-09T09:42:16;100031.56;;;33.19;27.11
22440;BME280;11387;51.612;7.210;2022-09-09T09:44:52;100039.91;;;30.33;31.12
22440;BME280;11387;51.612;7.210;2022-09-09T09:47:22;100041.75;;;28.65;33.13
22440;BME280;11387;51.612;7.210;2022-09-09T09:49:52;100041.66;;;26.65;37.36
22440;BME280;11387;51.612;7.210;2022-09-09T09:52:32;100046.34;;;26.45;38.03
22440;BME280;11387;51.612;7.210;2022-09-09T09:55:12;100031.38;;;27.36;35.39
22440;BME280;11387;51.612;7.210;2022-09-09T09:57:42;100042.69;;;27.05;35.50
22440;BME280;11387;51.612;7.210;2022-09-09T10:00:15;100035.41;;;27.81;33.75
22440;BME280;11387;51.612;7.210;2022-09-09T10:02:46;100041.50;;;28.39;33.30
22440;BME280;11387;51.612;7.210;2022-09-09T10:05:17;100030.63;;;27.32;35.11
22440;BME280;11387;51.612;7.210;2022-09-09T10:08:04;100050.16;;;25.90;37.04
22440;BME280;11387;51.612;7.210;2022-09-09T10:10:43;100038.03;;;25.11;38.77
22440;BME280;11387;51.612;7.210;2022-09-09T10:13:20;100037.19;;;26.68;36.58
22440;BME280;11387;51.612;7.210;2022-09-09T10:16:06;100039.75;;;29.01;32.87
22440;BME280;11387;51.612;7.210;2022-09-09T10:18:57;100030.38;;;26.38;36.84
22440;BME280;11387;51.612;7.210;2022-09-09T10:21:55;100036.09;;;24.24;41.61
22440;BME280;11387;51.612;7.210;2022-09-09T10:24:39;100040.22;;;23.84;42.80
22440;BME280;11387;51.612;7.210;2022-09-09T10:27:20;100035.47;;;23.53;43.48
22440;BME280;11387;51.612;7.210;2022-09-09T10:30:06;100036.25;;;23.42;43.72
22440;BME280;11387;51.612;7.210;2022-09-09T10:32:41;100041.03;;;23.28;43.33
22440;BME280;11387;51.612;7.210;2022-09-09T10:35:22;100038.66;;;23.23;43.85
22440;BME280;11387;51.612;7.210;2022-09-09T10:40:58;100030.69;;;23.53;42.43
22440;BME280;11387;51.612;7.210;2022-09-09T10:43:46;100036.22;;;28.02;34.84
22440;BME280;11387;51.612;7.210;2022-09-09T10:46:33;100041.22;;;25.13;38.18
22440;BME280;11387;51.612;7.210;2022-09-09T10:49:18;100033.03;;;22.87;42.87
22440;BME280;11387;51.612;7.210;2022-09-09T10:51:56;100019.03;;;27.96;34.10
22440;BME280;11387;51.612;7.210;2022-09-09T10:54:39;100028.22;;;32.40;27.85
22440;BME280;11387;51.612;7.210;2022-09-09T10:57:17;100012.47;;;34.05;24.91
22440;BME280;11387;51.612;7.210;2022-09-09T10:59:53;100017.81;;;34.39;23.75
22440;BME280;11387;51.612;7.210;2022-09-09T11:02:27;100023.00;;;29.10;29.57
22440;BME280;11387;51.612;7.210;2022-09-09T11:05:01;100013.81;;;26.17;35.48
22440;BME280;11387;51.612;7.210;2022-09-09T11:07:36;100012.94;;;24.20;39.61
22440;BME280;11387;51.612;7.210;2022-09-09T11:10:17;100021.88;;;23.44;41.13
22440;BME280;11387;51.612;7.210;2022-09-09T11:12:52;100008.72;;;23.62;40.82
22440;BME280;11387;51.612;7.210;2022-09-09T11:15:28;100033.06;;;23.47;40.67
22440;BME280;11387;51.612;7.210;2022-09-09T11:18:01;100022.28;;;23.32;40.88
22440;BME280;11387;51.612;7.210;2022-09-09T11:20:33;100027.97;;;22.09;44.02
22440;BME280;11387;51.612;7.210;2022-09-09T11:23:04;100015.69;;;21.56;45.19
22440;BME280;11387;51.612;7.210;2022-09-09T11:25:40;100013.06;;;21.22;46.09
22440;BME280;11387;51.612;7.210;2022-09-09T11:28:32;100028.41;;;21.53;45.70
22440;BME280;11387;51.612;7.210;2022-09-09T11:31:16;100027.47;;;21.93;44.50
22440;BME280;11387;51.612;7.210;2022-09-09T11:34:03;100019.28;;;22.25;44.53
22440;BME280;11387;51.612;7.210;2022-09-09T11:37:15;100030.47;;;21.63;45.27
22440;BME280;11387;51.612;7.210;2022-09-09T11:40:08;100024.91;;;21.63;45.59
22440;BME280;11387;51.612;7.210;2022-09-09T11:43:01;100026.03;;;21.55;46.32
22440;BME280;11387;51.612;7.210;2022-09-09T11:45:33;100017.38;;;21.71;46.21
22440;BME280;11387;51.612;7.210;2022-09-09T11:48:03;100015.34;;;21.09;47.22
22440;BME280;11387;51.612;7.210;2022-09-09T11:50:35;100020.78;;;21.43;46.74
22440;BME280;11387;51.612;7.210;2022-09-09T11:53:19;100012.31;;;22.88;44.17
22440;BME280;11387;51.612;7.210;2022-09-09T11:56:02;100008.69;;;26.42;36.75
22440;BME280;11387;51.612;7.210;2022-09-09T11:58:37;100005.53;;;26.94;35.49
22440;BME280;11387;51.612;7.210;2022-09-09T12:01:14;99995.47;;;26.70;35.53
22440;BME280;11387;51.612;7.210;2022-09-09T12:03:45;100001.22;;;25.12;38.85
22440;BME280;11387;51.612;7.210;2022-09-09T12:06:18;99988.81;;;23.03;42.34
22440;BME280;11387;51.612;7.210;2022-09-09T12:08:51;99995.47;;;22.49;44.49
22440;BME280;11387;51.612;7.210;2022-09-09T12:11:26;99996.69;;;22.55;44.40
22440;BME280;11387;51.612;7.210;2022-09-09T12:13:56;99989.06;;;22.38;44.65
22440;BME280;11387;51.612;7.210;2022-09-09T12:16:30;100008.16;;;22.25;45.50
22440;BME280;11387;51.612;7.210;2022-09-09T12:19:05;100007.81;;;21.65;46.78
22440;BME280;11387;51.612;7.210;2022-09-09T12:21:40;100001.47;;;21.16;48.20
22440;BME280;11387;51.612;7.210;2022-09-09T12:24:18;100007.09;;;20.79;49.69
22440;BME280;11387;51.612;7.210;2022-09-09T12:26:53;100013.16;;;20.51;50.77
22440;BME280;11387;51.612;7.210;2022-09-09T12:29:27;100031.28;;;19.78;53.48
22440;BME280;11387;51.612;7.210;2022-09-09T12:32:00;100027.94;;;19.69;54.66
22440;BME280;11387;51.612;7.210;2022-09-09T12:34:36;100025.34;;;20.10;53.77
22440;BME280;11387;51.612;7.210;2022-09-09T12:37:15;100034.88;;;21.71;49.58
22440;BME280;11387;51.612;7.210;2022-09-09T12:39:52;100022.56;;;22.63;47.16
22440;BME280;11387;51.612;7.210;2022-09-09T12:42:23;100027.31;;;25.92;41.14
22440;BME280;11387;51.612;7.210;2022-09-09T12:44:53;100024.25;;;28.93;34.42
22440;BME280;11387;51.612;7.210;2022-09-09T12:47:26;100026.41;;;29.83;32.75
22440;BME280;11387;51.612;7.210;2022-09-09T12:49:57;100016.53;;;27.12;36.46
22440;BME280;11387;51.612;7.210;2022-09-09T12:52:29;100022.00;;;24.52;41.65
22440;BME280;11387;51.612;7.210;2022-09-09T12:55:03;100015.66;;;22.14;47.74
22440;BME280;11387;51.612;7.210;2022-09-09T12:57:35;100020.75;;;21.36;49.40
22440;BME280;11387;51.612;7.210;2022-09-09T13:00:10;100013.88;;;21.81;48.83
22440;BME280;11387;51.612;7.210;2022-09-09T13:02:50;100011.19;;;21.99;48.56
22440;BME280;11387;51.612;7.210;2022-09-09T13:05:21;100005.59;;;24.55;42.54
22440;BME280;11387;51.612;7.210;2022-09-09T13:07:50;99999.28;;;24.43;42.85
22440;BME280;11387;51.612;7.210;2022-09-09T13:10:24;99994.97;;;24.94;41.42
22440;BME280;11387;51.612;7.210;2022-09-09T13:13:13;99990.81;;;23.53;44.33
22440;BME280;11387;51.612;7.210;2022-09-09T13:15:49;100005.16;;;24.67;42.05
22440;BME280;11387;51.612;7.210;2022-09-09T13:18:22;99994.97;;;25.83;39.86
22440;BME280;11387;51.612;7.210;2022-09-09T13:20:58;99999.94;;;23.67;44.03
22440;BME280;11387;51.612;7.210;2022-09-09T13:23:50;99998.50;;;22.05;47.54
22440;BME280;11387;51.612;7.210;2022-09-09T13:26:23;100006.56;;;21.11;51.01
22440;BME280;11387;51.612;7.210;2022-09-09T13:29:17;100012.22;;;20.74;52.56